sensor_id;sensor_type;location;lat;lon;timestamp;pressure;altitude;pressure_sealevel;temperature;humidity
32243;BME280;18731;42.830;24.390;2022-10-16T03:02:26;95303.34;;;4.83;75.42
32243;BME280;18731;42.830;24.390;2022-10-16T03:04:52;95327.84;;;5.04;74.88
32243;BME280;18731;42.830;24.390;2022-10-16T03:07:17;95336.84;;;5.03;75.26
32243;BME280;18731;42.830;24.390;2022-10-16T03:09:43;95336.53;;;5.10;74.78
32243;BME280;18731;42.830;24.390;2022-10-16T03:12:09;95319.44;;;4.92;75.25
32243;BME280;18731;42.830;24.390;2022-10-16T03:14:37;95330.50;;;4.99;75.58
32243;BME280;18731;42.830;24.390;2022-10-16T03:17:05;95334.72;;;5.05;75.30
32243;BME280;18731;42.830;24.390;2022-10-16T03:19:31;95335.47;;;5.11;75.06
32243;BME280;18731;42.830;24.390;2022-10-16T03:21:57;95321.22;;;5.02;74.80
32243;BME280;18731;42.830;24.390;2022-10-16T03:24:23;95329.16;;;5.02;74.93
32243;BME280;18731;42.830;24.390;2022-10-16T03:26:48;95310.41;;;4.98;74.61
32243;BME280;18731;42.830;24.390;2022-10-16T03:29:14;95284.63;;;4.65;75.09
32243;BME280;18731;42.830;24.390;2022-10-16T03:31:40;95334.72;;;5.05;74.84
32243;BME280;18731;42.830;24.390;2022-10-16T03:34:06;95319.41;;;4.97;74.65
32243;BME280;18731;42.830;24.390;2022-10-16T03:36:32;95334.16;;;5.08;74.46
32243;BME280;18731;42.830;24.390;2022-10-16T03:38:57;95328.88;;;5.08;74.25
32243;BME280;18731;42.830;24.390;2022-10-16T03:41:23;95324.66;;;5.02;74.44
32243;BME280;18731;42.830;24.390;2022-10-16T03:43:49;95312.25;;;4.98;74.21
32243;BME280;18731;42.830;24.390;2022-10-16T03:46:14;95334.75;;;5.00;74.16
32243;BME280;18731;42.830;24.390;2022-10-16T03:48:40;95339.75;;;5.02;74.12
32243;BME280;18731;42.830;24.390;2022-10-16T03:51:06;95321.31;;;4.87;74.04
32243;BME280;18731;42.830;24.390;2022-10-16T03:53:32;95334.75;;;4.95;74.16
32243;BME280;18731;42.830;24.390;2022-10-16T03:55:57;95341.34;;;4.98;74.86
32243;BME280;18731;42.830;24.390;2022-10-16T03:58:25;95346.13;;;4.96;75.00
32243;BME280;18731;42.830;24.390;2022-10-16T04:00:51;95345.34;;;4.95;74.74
32243;BME280;18731;42.830;24.390;2022-10-16T04:03:16;95349.84;;;4.95;75.00
32243;BME280;18731;42.830;24.390;2022-10-16T04:05:44;95347.44;;;4.98;74.72
32243;BME280;18731;42.830;24.390;2022-10-16T04:08:10;95343.22;;;4.97;74.38
32243;BME280;18731;42.830;24.390;2022-10-16T04:10:35;95342.97;;;4.94;74.63
32243;BME280;18731;42.830;24.390;2022-10-16T04:13:01;95343.28;;;4.82;74.74
32243;BME280;18731;42.830;24.390;2022-10-16T04:15:27;95341.13;;;4.89;74.77
32243;BME280;18731;42.830;24.390;2022-10-16T04:17:52;95341.66;;;4.86;74.58
32243;BME280;18731;42.830;24.390;2022-10-16T04:20:18;95337.44;;;4.90;74.40
32243;BME280;18731;42.830;24.390;2022-10-16T04:22:45;95336.38;;;4.91;75.07
32243;BME280;18731;42.830;24.390;2022-10-16T04:25:11;95336.63;;;4.90;74.66
32243;BME280;18731;42.830;24.390;2022-10-16T04:27:37;95335.34;;;4.82;74.86
32243;BME280;18731;42.830;24.390;2022-10-16T04:30:04;95325.84;;;4.76;74.51
32243;BME280;18731;42.830;24.390;2022-10-16T04:32:30;95348.03;;;4.80;74.75
32243;BME280;18731;42.830;24.390;2022-10-16T04:34:55;95346.72;;;4.82;74.90
32243;BME280;18731;42.830;24.390;2022-10-16T04:37:25;95336.41;;;4.76;75.05
32243;BME280;18731;42.830;24.390;2022-10-16T04:39:52;95344.38;;;4.71;75.34
32243;BME280;18731;42.830;24.390;2022-10-16T04:42:18;95341.75;;;4.61;75.97
32243;BME280;18731;42.830;24.390;2022-10-16T04:44:44;95352.84;;;4.68;75.36
32243;BME280;18731;42.830;24.390;2022-10-16T04:47:10;95347.56;;;4.63;75.42
32243;BME280;18731;42.830;24.390;2022-10-16T04:49:35;95367.38;;;4.75;75.05
32243;BME280;18731;42.830;24.390;2022-10-16T04:52:01;95343.59;;;4.60;75.19
32243;BME280;18731;42.830;24.390;2022-10-16T04:54:27;95338.06;;;4.57;74.96
32243;BME280;18731;42.830;24.390;2022-10-16T04:56:52;95368.44;;;4.74;75.05
32243;BME280;18731;42.830;24.390;2022-10-16T04:59:19;95360.25;;;4.71;74.90
32243;BME280;18731;42.830;24.390;2022-10-16T05:01:44;95362.91;;;4.66;74.76
32243;BME280;18731;42.830;24.390;2022-10-16T05:04:10;95370.28;;;4.69;75.27
32243;BME280;18731;42.830;24.390;2022-10-16T05:06:37;95375.84;;;4.72;75.35
32243;BME280;18731;42.830;24.390;2022-10-16T05:09:04;95373.72;;;4.69;75.95
32243;BME280;18731;42.830;24.390;2022-10-16T05:11:30;95383.50;;;4.69;75.93
32243;BME280;18731;42.830;24.390;2022-10-16T05:13:57;95369.25;;;4.60;76.14
32243;BME280;18731;42.830;24.390;2022-10-16T05:16:23;95371.88;;;4.65;75.80
32243;BME280;18731;42.830;24.390;2022-10-16T05:18:49;95386.69;;;4.71;76.00
32243;BME280;18731;42.830;24.390;2022-10-16T05:21:16;95386.69;;;4.71;76.09
32243;BME280;18731;42.830;24.390;2022-10-16T05:23:42;95372.94;;;4.64;76.11
32243;BME280;18731;42.830;24.390;2022-10-16T05:26:08;95360.78;;;4.63;76.30
32243;BME280;18731;42.830;24.390;2022-10-16T05:28:33;95393.50;;;4.92;76.60
32243;BME280;18731;42.830;24.390;2022-10-16T05:30:59;95374.91;;;5.07;76.48
32243;BME280;18731;42.830;24.390;2022-10-16T05:33:29;95386.53;;;5.22;76.05
32243;BME280;18731;42.830;24.390;2022-10-16T05:35:54;95374.56;;;5.34;75.97
32243;BME280;18731;42.830;24.390;2022-10-16T05:38:20;95390.28;;;5.65;76.40
32243;BME280;18731;42.830;24.390;2022-10-16T05:40:52;95369.25;;;5.78;75.37
32243;BME280;18731;42.830;24.390;2022-10-16T05:43:19;95391.28;;;6.13;74.13
32243;BME280;18731;42.830;24.390;2022-10-16T05:48:21;95395.13;;;6.60;73.12
32243;BME280;18731;42.830;24.390;2022-10-16T05:50:47;95386.69;;;6.82;73.03
32243;BME280;18731;42.830;24.390;2022-10-16T05:53:13;95396.16;;;7.12;72.01
32243;BME280;18731;42.830;24.390;2022-10-16T05:55:39;95383.84;;;7.21;72.58
32243;BME280;18731;42.830;24.390;2022-10-16T05:58:04;95402.84;;;7.52;71.86
32243;BME280;18731;42.830;24.390;2022-10-16T06:00:30;95409.31;;;7.64;70.38
32243;BME280;18731;42.830;24.390;2022-10-16T06:02:55;95396.97;;;7.73;70.09
32243;BME280;18731;42.830;24.390;2022-10-16T06:05:21;95412.72;;;7.89;69.81
32243;BME280;18731;42.830;24.390;2022-10-16T06:07:47;95421.06;;;8.01;69.62
32243;BME280;18731;42.830;24.390;2022-10-16T06:10:12;95416.59;;;8.15;69.21
32243;BME280;18731;42.830;24.390;2022-10-16T06:12:38;95409.81;;;8.23;68.66
32243;BME280;18731;42.830;24.390;2022-10-16T06:15:04;95417.13;;;8.50;68.42
32243;BME280;18731;42.830;24.390;2022-10-16T06:17:30;95395.53;;;8.37;68.69
32243;BME280;18731;42.830;24.390;2022-10-16T06:19:55;95404.03;;;8.53;68.40
32243;BME280;18731;42.830;24.390;2022-10-16T06:22:21;95418.00;;;8.91;67.84
32243;BME280;18731;42.830;24.390;2022-10-16T06:24:47;95421.97;;;9.08;67.47
32243;BME280;18731;42.830;24.390;2022-10-16T06:27:13;95424.44;;;9.18;67.54
32243;BME280;18731;42.830;24.390;2022-10-16T06:29:38;95432.72;;;9.30;66.91
32243;BME280;18731;42.830;24.390;2022-10-16T06:32:04;95421.97;;;9.49;66.70
32243;BME280;18731;42.830;24.390;2022-10-16T06:34:30;95426.72;;;9.88;65.89
32243;BME280;18731;42.830;24.390;2022-10-16T06:36:55;95425.91;;;10.01;65.94
32243;BME280;18731;42.830;24.390;2022-10-16T06:39:21;95433.97;;;10.23;65.52
32243;BME280;18731;42.830;24.390;2022-10-16T06:41:47;95415.06;;;10.34;65.07
32243;BME280;18731;42.830;24.390;2022-10-16T06:44:12;95422.41;;;10.73;63.62
32243;BME280;18731;42.830;24.390;2022-10-16T06:46:38;95424.81;;;10.83;63.74
32243;BME280;18731;42.830;24.390;2022-10-16T06:49:03;95403.34;;;10.97;62.83
32243;BME280;18731;42.830;24.390;2022-10-16T06:51:29;95426.72;;;11.22;63.10
32243;BME280;18731;42.830;24.390;2022-10-16T06:53:57;95422.13;;;11.62;61.98
32243;BME280;18731;42.830;24.390;2022-10-16T06:56:25;95422.53;;;11.95;61.38
32243;BME280;18731;42.830;24.390;2022-10-16T06:58:51;95413.88;;;12.07;62.03
32243;BME280;18731;42.830;24.390;2022-10-16T07:01:22;95424.28;;;12.34;61.39
32243;BME280;18731;42.830;24.390;2022-10-16T07:03:48;95419.72;;;12.43;61.01
32243;BME280;18731;42.830;24.390;2022-10-16T07:06:15;95416.22;;;12.60;61.39
32243;BME280;18731;42.830;24.390;2022-10-16T07:08:43;95422.53;;;12.64;60.84
32243;BME280;18731;42.830;24.390;2022-10-16T07:11:14;95430.06;;;12.79;60.76
32243;BME280;18731;42.830;24.390;2022-10-16T07:13:41;95428.75;;;12.94;60.74
32243;BME280;18731;42.830;24.390;2022-10-16T07:16:10;95435.22;;;13.02;59.77
32243;BME280;18731;42.830;24.390;2022-10-16T07:18:37;95432.34;;;13.15;58.30
32243;BME280;18731;42.830;24.390;2022-10-16T07:21:10;95432.34;;;13.15;58.97
32243;BME280;18731;42.830;24.390;2022-10-16T07:23:37;95430.63;;;13.11;59.34
32243;BME280;18731;42.830;24.390;2022-10-16T07:26:04;95433.47;;;13.23;58.67
32243;BME280;18731;42.830;24.390;2022-10-16T07:28:30;95427.75;;;13.33;59.59
32243;BME280;18731;42.830;24.390;2022-10-16T07:31:01;95416.56;;;13.61;58.65
32243;BME280;18731;42.830;24.390;2022-10-16T07:33:27;95419.47;;;13.76;58.18
32243;BME280;18731;42.830;24.390;2022-10-16T07:35:53;95426.34;;;13.86;57.82
32243;BME280;18731;42.830;24.390;2022-10-16T07:38:20;95419.09;;;13.87;57.79
32243;BME280;18731;42.830;24.390;2022-10-16T07:40:46;95426.34;;;13.86;57.71
32243;BME280;18731;42.830;24.390;2022-10-16T07:43:13;95421.59;;;14.12;56.57
32243;BME280;18731;42.830;24.390;2022-10-16T07:45:47;95420.28;;;14.39;55.80
32243;BME280;18731;42.830;24.390;2022-10-16T07:48:14;95428.97;;;14.45;56.73
32243;BME280;18731;42.830;24.390;2022-10-16T07:50:39;95417.09;;;14.46;56.61
32243;BME280;18731;42.830;24.390;2022-10-16T07:53:06;95416.22;;;14.54;55.37
32243;BME280;18731;42.830;24.390;2022-10-16T07:55:32;95421.19;;;14.64;55.92
32243;BME280;18731;42.830;24.390;2022-10-16T07:57:58;95414.53;;;14.83;56.94
32243;BME280;18731;42.830;24.390;2022-10-16T08:00:24;95413.00;;;14.94;55.99
32243;BME280;18731;42.830;24.390;2022-10-16T08:02:49;95414.84;;;15.14;57.28
32243;BME280;18731;42.830;24.390;2022-10-16T08:05:15;95419.91;;;15.40;55.03
32243;BME280;18731;42.830;24.390;2022-10-16T08:07:40;95416.09;;;15.41;56.34
32243;BME280;18731;42.830;24.390;2022-10-16T08:10:09;95408.25;;;15.48;55.92
32243;BME280;18731;42.830;24.390;2022-10-16T08:12:36;95414.69;;;15.80;55.21
32243;BME280;18731;42.830;24.390;2022-10-16T08:15:02;95408.56;;;16.20;52.81
32243;BME280;18731;42.830;24.390;2022-10-16T08:17:27;95406.72;;;16.64;52.45
32243;BME280;18731;42.830;24.390;2022-10-16T08:19:53;95402.13;;;16.64;46.56
32243;BME280;18731;42.830;24.390;2022-10-16T08:22:19;95402.03;;;16.89;47.91
32243;BME280;18731;42.830;24.390;2022-10-16T08:24:44;95395.94;;;16.64;46.03
32243;BME280;18731;42.830;24.390;2022-10-16T08:27:10;95403.63;;;17.21;45.08
32243;BME280;18731;42.830;24.390;2022-10-16T08:29:35;95405.56;;;17.68;43.29
32243;BME280;18731;42.830;24.390;2022-10-16T08:32:03;95408.56;;;17.98;43.54
32243;BME280;18731;42.830;24.390;2022-10-16T08:34:29;95405.28;;;18.43;42.99
32243;BME280;18731;42.830;24.390;2022-10-16T08:36:54;95409.72;;;18.90;41.43
32243;BME280;18731;42.830;24.390;2022-10-16T08:39:20;95411.84;;;19.23;40.67
32243;BME280;18731;42.830;24.390;2022-10-16T08:42:07;95414.56;;;19.46;39.99
32243;BME280;18731;42.830;24.390;2022-10-16T08:50:11;95413.84;;;20.54;37.25
32243;BME280;18731;42.830;24.390;2022-10-16T08:52:41;95409.91;;;20.48;36.19
32243;BME280;18731;42.830;24.390;2022-10-16T08:58:28;95411.81;;;20.78;35.77
32243;BME280;18731;42.830;24.390;2022-10-16T09:00:57;95419.22;;;21.14;35.54
32243;BME280;18731;42.830;24.390;2022-10-16T09:03:40;95414.13;;;21.50;34.76
32243;BME280;18731;42.830;24.390;2022-10-16T09:14:32;95418.19;;;22.25;32.82
32243;BME280;18731;42.830;24.390;2022-10-16T09:17:20;95426.78;;;22.31;32.72
32243;BME280;18731;42.830;24.390;2022-10-16T09:19:54;95405.53;;;22.54;33.53
32243;BME280;18731;42.830;24.390;2022-10-16T09:22:27;95414.59;;;22.83;31.29
32243;BME280;18731;42.830;24.390;2022-10-16T09:24:56;95414.94;;;22.74;32.57
32243;BME280;18731;42.830;24.390;2022-10-16T09:27:26;95416.19;;;22.91;31.69
32243;BME280;18731;42.830;24.390;2022-10-16T09:29:51;95404.53;;;22.94;30.30
32243;BME280;18731;42.830;24.390;2022-10-16T09:32:19;95415.88;;;23.32;30.85
32243;BME280;18731;42.830;24.390;2022-10-16T09:34:54;95418.66;;;23.50;30.81
32243;BME280;18731;42.830;24.390;2022-10-16T09:37:22;95409.63;;;23.14;30.96
32243;BME280;18731;42.830;24.390;2022-10-16T09:39:53;95396.41;;;23.16;30.50
32243;BME280;18731;42.830;24.390;2022-10-16T09:42:26;95405.81;;;23.47;31.44
32243;BME280;18731;42.830;24.390;2022-10-16T09:44:56;95404.56;;;23.05;30.49
32243;BME280;18731;42.830;24.390;2022-10-16T09:47:29;95401.50;;;23.35;31.21
32243;BME280;18731;42.830;24.390;2022-10-16T09:49:58;95407.38;;;23.44;30.06
32243;BME280;18731;42.830;24.390;2022-10-16T09:52:28;95397.19;;;23.13;30.31
32243;BME280;18731;42.830;24.390;2022-10-16T09:54:58;95398.06;;;23.56;29.73
32243;BME280;18731;42.830;24.390;2022-10-16T09:57:25;95398.06;;;23.81;30.34
32243;BME280;18731;42.830;24.390;2022-10-16T09:59:56;95393.38;;;23.81;31.65
32243;BME280;18731;42.830;24.390;2022-10-16T10:02:30;95393.38;;;23.92;29.73
32243;BME280;18731;42.830;24.390;2022-10-16T10:04:57;95398.00;;;24.30;29.21
32243;BME280;18731;42.830;24.390;2022-10-16T10:07:28;95387.50;;;24.11;29.99
32243;BME280;18731;42.830;24.390;2022-10-16T10:09:59;95383.28;;;23.64;31.15
32243;BME280;18731;42.830;24.390;2022-10-16T10:12:27;95377.03;;;23.85;29.81
32243;BME280;18731;42.830;24.390;2022-10-16T10:14:56;95380.16;;;23.80;28.98
32243;BME280;18731;42.830;24.390;2022-10-16T10:17:24;95373.91;;;23.90;30.22
32243;BME280;18731;42.830;24.390;2022-10-16T10:19:59;95377.75;;;24.14;29.25
32243;BME280;18731;42.830;24.390;2022-10-16T10:22:29;95383.66;;;23.84;28.06
32243;BME280;18731;42.830;24.390;2022-10-16T10:30:49;95377.38;;;24.08;28.38
32243;BME280;18731;42.830;24.390;2022-10-16T10:36:36;95370.78;;;23.84;28.04
32243;BME280;18731;42.830;24.390;2022-10-16T10:55:40;95356.00;;;23.82;29.12
32243;BME280;18731;42.830;24.390;2022-10-16T11:01:04;95344.13;;;24.52;28.82
32243;BME280;18731;42.830;24.390;2022-10-16T11:06:23;95346.19;;;24.13;27.93
32243;BME280;18731;42.830;24.390;2022-10-16T11:09:27;95343.47;;;24.13;28.23
32243;BME280;18731;42.830;24.390;2022-10-16T11:11:56;95346.94;;;24.34;28.84
32243;BME280;18731;42.830;24.390;2022-10-16T11:14:33;95351.22;;;24.25;27.67
32243;BME280;18731;42.830;24.390;2022-10-16T11:25:00;95335.31;;;25.00;27.59
32243;BME280;18731;42.830;24.390;2022-10-16T11:30:26;95337.66;;;24.94;27.10
32243;BME280;18731;42.830;24.390;2022-10-16T11:33:24;95339.25;;;24.92;27.30
32243;BME280;18731;42.830;24.390;2022-10-16T11:41:45;95342.69;;;24.12;26.67
32243;BME280;18731;42.830;24.390;2022-10-16T11:47:35;95340.34;;;24.11;27.12
32243;BME280;18731;42.830;24.390;2022-10-16T11:50:25;95342.13;;;24.67;27.33
32243;BME280;18731;42.830;24.390;2022-10-16T11:55:33;95349.69;;;24.20;28.79
32243;BME280;18731;42.830;24.390;2022-10-16T11:58:04;95352.06;;;24.08;26.96
32243;BME280;18731;42.830;24.390;2022-10-16T12:01:15;95346.13;;;24.45;27.84
32243;BME280;18731;42.830;24.390;2022-10-16T12:04:17;95350.53;;;23.89;26.45
32243;BME280;18731;42.830;24.390;2022-10-16T12:06:53;95349.69;;;24.17;26.87
32243;BME280;18731;42.830;24.390;2022-10-16T12:09:29;95354.75;;;24.32;27.00
32243;BME280;18731;42.830;24.390;2022-10-16T12:11:55;95346.97;;;24.13;26.74
32243;BME280;18731;42.830;24.390;2022-10-16T12:14:34;95355.91;;;24.35;27.04
32243;BME280;18731;42.830;24.390;2022-10-16T12:17:21;95347.31;;;24.36;26.80
32243;BME280;18731;42.830;24.390;2022-10-16T12:22:57;95351.78;;;24.82;26.85
32243;BME280;18731;42.830;24.390;2022-10-16T12:25:32;95356.09;;;25.42;27.13
32243;BME280;18731;42.830;24.390;2022-10-16T12:28:04;95363.63;;;25.79;24.89
32243;BME280;18731;42.830;24.390;2022-10-16T12:30:35;95362.31;;;25.94;24.97
32243;BME280;18731;42.830;24.390;2022-10-16T12:33:05;95370.66;;;26.59;24.94
32243;BME280;18731;42.830;24.390;2022-10-16T12:35:33;95368.81;;;27.40;26.38
32243;BME280;18731;42.830;24.390;2022-10-16T12:38:18;95371.00;;;27.99;26.01
32243;BME280;18731;42.830;24.390;2022-10-16T12:40:46;95365.44;;;28.46;24.97
32243;BME280;18731;42.830;24.390;2022-10-16T12:43:35;95371.31;;;28.68;26.11
32243;BME280;18731;42.830;24.390;2022-10-16T12:46:22;95374.41;;;28.70;22.69
32243;BME280;18731;42.830;24.390;2022-10-16T12:48:49;95369.91;;;28.99;24.89
32243;BME280;18731;42.830;24.390;2022-10-16T12:54:12;95375.75;;;29.54;22.70
32243;BME280;18731;42.830;24.390;2022-10-16T12:56:54;95377.47;;;29.48;22.08
32243;BME280;18731;42.830;24.390;2022-10-16T13:02:31;95367.47;;;29.37;21.14
32243;BME280;18731;42.830;24.390;2022-10-16T13:05:21;95374.16;;;29.20;20.54
32243;BME280;18731;42.830;24.390;2022-10-16T13:07:56;95377.31;;;29.19;20.22
32243;BME280;18731;42.830;24.390;2022-10-16T13:10:32;95382.66;;;28.90;20.95
32243;BME280;18731;42.830;24.390;2022-10-16T13:16:21;95382.31;;;28.25;23.26
32243;BME280;18731;42.830;24.390;2022-10-16T13:21:37;95380.66;;;28.07;22.64
32243;BME280;18731;42.830;24.390;2022-10-16T13:29:32;95378.13;;;25.17;25.00
32243;BME280;18731;42.830;24.390;2022-10-16T13:32:08;95391.78;;;24.26;27.26
32243;BME280;18731;42.830;24.390;2022-10-16T13:34:44;95399.56;;;23.35;27.17
32243;BME280;18731;42.830;24.390;2022-10-16T13:37:21;95390.72;;;22.48;30.29
32243;BME280;18731;42.830;24.390;2022-10-16T13:39:48;95393.16;;;21.47;29.26
32243;BME280;18731;42.830;24.390;2022-10-16T13:42:22;95392.53;;;20.53;33.87
32243;BME280;18731;42.830;24.390;2022-10-16T13:44:51;95395.16;;;19.89;32.30
32243;BME280;18731;42.830;24.390;2022-10-16T13:47:21;95400.28;;;19.49;35.74
32243;BME280;18731;42.830;24.390;2022-10-16T13:50:00;95385.31;;;18.67;38.83
32243;BME280;18731;42.830;24.390;2022-10-16T13:52:27;95403.78;;;18.26;34.58
32243;BME280;18731;42.830;24.390;2022-10-16T13:54:53;95408.91;;;17.96;39.15
32243;BME280;18731;42.830;24.390;2022-10-16T13:57:22;95410.25;;;17.71;41.41
32243;BME280;18731;42.830;24.390;2022-10-16T13:59:49;95413.56;;;17.49;42.00
32243;BME280;18731;42.830;24.390;2022-10-16T14:02:27;95418.06;;;17.13;39.84
32243;BME280;18731;42.830;24.390;2022-10-16T14:04:54;95404.09;;;16.80;42.23
32243;BME280;18731;42.830;24.390;2022-10-16T14:07:26;95417.38;;;16.73;41.47
32243;BME280;18731;42.830;24.390;2022-10-16T14:09:54;95421.13;;;16.56;41.61
32243;BME280;18731;42.830;24.390;2022-10-16T14:12:21;95424.91;;;16.39;42.07
32243;BME280;18731;42.830;24.390;2022-10-16T14:14:50;95425.13;;;16.34;41.94
32243;BME280;18731;42.830;24.390;2022-10-16T14:17:48;95434.72;;;16.19;41.61
32243;BME280;18731;42.830;24.390;2022-10-16T14:20:16;95432.03;;;16.07;43.62
32243;BME280;18731;42.830;24.390;2022-10-16T14:22:42;95429.59;;;15.78;43.23
32243;BME280;18731;42.830;24.390;2022-10-16T14:27:59;95445.44;;;15.67;45.35
32243;BME280;18731;42.830;24.390;2022-10-16T14:30:26;95441.56;;;15.56;45.03
32243;BME280;18731;42.830;24.390;2022-10-16T14:37:57;95443.31;;;15.27;48.15
32243;BME280;18731;42.830;24.390;2022-10-16T14:40:25;95444.53;;;15.18;47.46
32243;BME280;18731;42.830;24.390;2022-10-16T14:42:53;95450.47;;;15.11;49.58
32243;BME280;18731;42.830;24.390;2022-10-16T14:45:21;95442.34;;;14.99;49.39
32243;BME280;18731;42.830;24.390;2022-10-16T14:48:00;95455.09;;;14.90;49.42
32243;BME280;18731;42.830;24.390;2022-10-16T14:50:27;95446.22;;;14.77;48.97
32243;BME280;18731;42.830;24.390;2022-10-16T14:52:53;95459.72;;;14.68;49.80
32243;BME280;18731;42.830;24.390;2022-10-16T14:55:19;95462.50;;;14.60;50.34
32243;BME280;18731;42.830;24.390;2022-10-16T14:57:45;95460.53;;;14.48;50.13
32243;BME280;18731;42.830;24.390;2022-10-16T15:00:22;95455.91;;;14.28;51.61
32243;BME280;18731;42.830;24.390;2022-10-16T15:02:49;95469.28;;;14.15;52.50
32243;BME280;18731;42.830;24.390;2022-10-16T15:07:47;95472.78;;;13.87;53.49
32243;BME280;18731;42.830;24.390;2022-10-16T15:10:15;95484.38;;;13.70;54.26
32243;BME280;18731;42.830;24.390;2022-10-16T15:12:41;95477.34;;;13.57;54.40
32243;BME280;18731;42.830;24.390;2022-10-16T15:17:52;95482.44;;;13.41;54.36
32243;BME280;18731;42.830;24.390;2022-10-16T15:20:21;95477.94;;;13.24;54.05
32243;BME280;18731;42.830;24.390;2022-10-16T15:22:46;95494.00;;;13.24;55.52
32243;BME280;18731;42.830;24.390;2022-10-16T15:25:37;95495.59;;;13.08;56.31
32243;BME280;18731;42.830;24.390;2022-10-16T15:28:07;95488.03;;;12.93;56.68
32243;BME280;18731;42.830;24.390;2022-10-16T15:30:34;95501.13;;;12.85;57.24
32243;BME280;18731;42.830;24.390;2022-10-16T15:33:01;95489.00;;;12.62;57.34
32243;BME280;18731;42.830;24.390;2022-10-16T15:35:27;95511.38;;;12.66;57.62
32243;BME280;18731;42.830;24.390;2022-10-16T15:37:53;95514.84;;;12.58;58.13
32243;BME280;18731;42.830;24.390;2022-10-16T15:40:20;95518.94;;;12.47;58.36
32243;BME280;18731;42.830;24.390;2022-10-16T15:42:46;95523.66;;;12.41;58.40
32243;BME280;18731;42.830;24.390;2022-10-16T15:45:12;95522.38;;;12.30;58.44
32243;BME280;18731;42.830;24.390;2022-10-16T15:47:40;95528.03;;;12.20;58.08
32243;BME280;18731;42.830;24.390;2022-10-16T15:50:08;95539.03;;;12.10;58.29
32243;BME280;18731;42.830;24.390;2022-10-16T15:52:34;95526.72;;;11.91;58.63
32243;BME280;18731;42.830;24.390;2022-10-16T15:55:00;95547.03;;;11.93;58.56
32243;BME280;18731;42.830;24.390;2022-10-16T15:57:28;95541.56;;;11.75;59.21
32243;BME280;18731;42.830;24.390;2022-10-16T15:59:53;95548.47;;;11.68;59.37
32243;BME280;18731;42.830;24.390;2022-10-16T16:02:19;95539.09;;;11.48;59.08
32243;BME280;18731;42.830;24.390;2022-10-16T16:04:45;95553.53;;;11.38;59.48
32243;BME280;18731;42.830;24.390;2022-10-16T16:07:11;95567.69;;;11.39;59.92
32243;BME280;18731;42.830;24.390;2022-10-16T16:09:36;95563.84;;;11.31;60.65
32243;BME280;18731;42.830;24.390;2022-10-16T16:12:02;95572.44;;;11.19;61.20
32243;BME280;18731;42.830;24.390;2022-10-16T16:14:29;95569.28;;;11.17;61.57
32243;BME280;18731;42.830;24.390;2022-10-16T16:16:55;95579.66;;;10.97;62.80
32243;BME280;18731;42.830;24.390;2022-10-16T16:19:21;95571.03;;;10.77;63.33
32243;BME280;18731;42.830;24.390;2022-10-16T16:21:48;95586.38;;;10.72;64.05
32243;BME280;18731;42.830;24.390;2022-10-16T16:24:13;95584.34;;;10.55;63.89
32243;BME280;18731;42.830;24.390;2022-10-16T16:26:39;95591.88;;;10.53;63.83
32243;BME280;18731;42.830;24.390;2022-10-16T16:29:13;95593.25;;;10.37;64.33
32243;BME280;18731;42.830;24.390;2022-10-16T16:31:39;95597.13;;;10.30;64.59
32243;BME280;18731;42.830;24.390;2022-10-16T16:34:06;95603.63;;;10.24;64.72
32243;BME280;18731;42.830;24.390;2022-10-16T16:36:32;95599.19;;;10.20;64.71
32243;BME280;18731;42.830;24.390;2022-10-16T16:38:58;95606.78;;;10.13;64.98
32243;BME280;18731;42.830;24.390;2022-10-16T16:41:27;95614.38;;;10.06;65.58
32243;BME280;18731;42.830;24.390;2022-10-16T16:43:53;95615.19;;;10.06;65.24
32243;BME280;18731;42.830;24.390;2022-10-16T16:46:20;95621.69;;;10.00;65.22
32243;BME280;18731;42.830;24.390;2022-10-16T16:48:46;95622.47;;;9.87;66.05
32243;BME280;18731;42.830;24.390;2022-10-16T16:51:16;95622.09;;;9.80;66.26
32243;BME280;18731;42.830;24.390;2022-10-16T16:53:49;95622.56;;;9.68;66.32
32243;BME280;18731;42.830;24.390;2022-10-16T16:56:16;95631.16;;;9.65;66.53
32243;BME280;18731;42.830;24.390;2022-10-16T16:58:45;95637.09;;;9.76;66.02
32243;BME280;18731;42.830;24.390;2022-10-16T17:01:11;95636.06;;;9.58;66.25
32243;BME280;18731;42.830;24.390;2022-10-16T17:03:37;95645.53;;;9.50;67.07
32243;BME280;18731;42.830;24.390;2022-10-16T17:06:06;95633.38;;;9.44;67.40
32243;BME280;18731;42.830;24.390;2022-10-16T17:08:34;95639.78;;;9.43;66.99
32243;BME280;18731;42.830;24.390;2022-10-16T17:11:00;95644.41;;;9.38;66.91
32243;BME280;18731;42.830;24.390;2022-10-16T17:13:30;95634.63;;;9.33;67.33
32243;BME280;18731;42.830;24.390;2022-10-16T17:15:57;95636.38;;;9.24;67.85
32243;BME280;18731;42.830;24.390;2022-10-16T17:18:23;95639.41;;;9.17;68.12
32243;BME280;18731;42.830;24.390;2022-10-16T17:20:50;95641.78;;;9.19;67.54
32243;BME280;18731;42.830;24.390;2022-10-16T17:23:17;95641.84;;;9.14;67.67
32243;BME280;18731;42.830;24.390;2022-10-16T17:25:45;95653.81;;;8.97;67.78
32243;BME280;18731;42.830;24.390;2022-10-16T17:28:12;95651.22;;;8.92;68.68
32243;BME280;18731;42.830;24.390;2022-10-16T17:30:39;95652.75;;;8.80;69.18
32243;BME280;18731;42.830;24.390;2022-10-16T17:33:06;95653.09;;;8.73;70.26
32243;BME280;18731;42.830;24.390;2022-10-16T17:35:43;95631.72;;;8.59;69.98
32243;BME280;18731;42.830;24.390;2022-10-16T17:38:11;95658.41;;;8.73;69.56
32243;BME280;18731;42.830;24.390;2022-10-16T17:40:37;95662.88;;;8.59;70.03
32243;BME280;18731;42.830;24.390;2022-10-16T17:43:04;95658.78;;;8.66;69.63
32243;BME280;18731;42.830;24.390;2022-10-16T17:45:30;95615.03;;;8.35;69.41
32243;BME280;18731;42.830;24.390;2022-10-16T17:47:59;95667.84;;;8.65;69.21
32243;BME280;18731;42.830;24.390;2022-10-16T17:50:24;95657.53;;;8.59;69.04